Map

Track Data

SID SEASON NUMBER BASIN SUBBASIN NAME ISO_TIME NATURE LAT LON WMO_WIND WMO_PRES WMO_AGENCY TRACK_TYPE DIST2LAND LANDFALL IFLAG USA_AGENCY USA_ATCF_ID USA_LAT USA_LON USA_RECORD USA_STATUS USA_WIND USA_PRES USA_SSHS USA_R34_NE USA_R34_SE USA_R34_SW USA_R34_NW USA_R50_NE USA_R50_SE USA_R50_SW USA_R50_NW USA_R64_NE USA_R64_SE USA_R64_SW USA_R64_NW USA_POCI USA_ROCI USA_RMW USA_EYE TOKYO_LAT TOKYO_LON TOKYO_GRADE TOKYO_WIND TOKYO_PRES TOKYO_R50_DIR TOKYO_R50_LONG TOKYO_R50_SHORT TOKYO_R30_DIR TOKYO_R30_LONG TOKYO_R30_SHORT TOKYO_LAND CMA_LAT CMA_LON CMA_CAT CMA_WIND CMA_PRES HKO_LAT HKO_LON HKO_CAT HKO_WIND HKO_PRES NEWDELHI_LAT NEWDELHI_LON NEWDELHI_GRADE NEWDELHI_WIND NEWDELHI_PRES NEWDELHI_CI NEWDELHI_DP NEWDELHI_POCI REUNION_LAT REUNION_LON REUNION_TYPE REUNION_WIND REUNION_PRES REUNION_TNUM REUNION_CI REUNION_RMW REUNION_R34_NE REUNION_R34_SE REUNION_R34_SW REUNION_R34_NW REUNION_R50_NE REUNION_R50_SE REUNION_R50_SW REUNION_R50_NW REUNION_R64_NE REUNION_R64_SE REUNION_R64_SW REUNION_R64_NW BOM_LAT BOM_LON BOM_TYPE BOM_WIND BOM_PRES BOM_TNUM BOM_CI BOM_RMW BOM_R34_NE BOM_R34_SE BOM_R34_SW BOM_R34_NW BOM_R50_NE BOM_R50_SE BOM_R50_SW BOM_R50_NW BOM_R64_NE BOM_R64_SE BOM_R64_SW BOM_R64_NW BOM_ROCI BOM_POCI BOM_EYE BOM_POS_METHOD BOM_PRES_METHOD NADI_LAT NADI_LON NADI_CAT NADI_WIND NADI_PRES WELLINGTON_LAT WELLINGTON_LON WELLINGTON_WIND WELLINGTON_PRES DS824_LAT DS824_LON DS824_STAGE DS824_WIND DS824_PRES TD9636_LAT TD9636_LON TD9636_STAGE TD9636_WIND TD9636_PRES TD9635_LAT TD9635_LON TD9635_WIND TD9635_PRES TD9635_ROCI NEUMANN_LAT NEUMANN_LON NEUMANN_CLASS NEUMANN_WIND NEUMANN_PRES MLC_LAT MLC_LON MLC_CLASS MLC_WIND MLC_PRES USA_GUST BOM_GUST BOM_GUST_PER REUNION_GUST REUNION_GUST_PER USA_SEAHGT USA_SEARAD_NE USA_SEARAD_SE USA_SEARAD_SW USA_SEARAD_NW STORM_SPEED STORM_DIR
1979238N18266 1979 75 NA NA NOT_NAMED 1979-08-25 12:00:00 TS 18.0000 -94.5000 20 hurdat_atl main 0 0 O_____________ hurdat_atl AL101979 18.0000 -94.5000 TD 20 -1 13 334
1979238N18266 1979 75 NA GM NOT_NAMED 1979-08-25 15:00:00 TS 18.5652 -94.7943 main 21 15 P_____________ AL101979 18.5652 -94.7943 TD 22 -1 11 335
1979238N18266 1979 75 NA GM NOT_NAMED 1979-08-25 18:00:00 TS 19.0000 -95.0000 25 hurdat_atl main 39 39 O_____________ hurdat_atl AL101979 19.0000 -95.0000 TD 25 -1 7 338
1979238N18266 1979 75 NA GM NOT_NAMED 1979-08-25 21:00:00 TS 19.2298 -95.0780 main 56 56 P_____________ AL101979 19.2298 -95.0780 TD 25 -1 4 335
1979238N18266 1979 75 NA GM NOT_NAMED 1979-08-26 00:00:00 TS 19.4000 -95.2000 25 hurdat_atl main 78 68 O_____________ hurdat_atl AL101979 19.4000 -95.2000 TD 25 -1 7 311
1979238N18266 1979 75 NA GM NOT_NAMED 1979-08-26 03:00:00 TS 19.6704 -95.6145 main 76 41 P_____________ AL101979 19.6704 -95.6145 TD 27 -1 10 309
1979238N18266 1979 75 NA GM NOT_NAMED 1979-08-26 06:00:00 TS 20.0000 -96.0000 30 hurdat_atl main 43 38 O_____________ hurdat_atl AL101979 20.0000 -96.0000 TD 30 -1 8 329
1979238N18266 1979 75 NA GM NOT_NAMED 1979-08-26 09:00:00 TS 20.3699 -96.0604 main 61 61 P_____________ AL101979 20.3699 -96.0604 TD 30 -1 8 1
1979238N18266 1979 75 NA GM NOT_NAMED 1979-08-26 12:00:00 TS 20.8000 -96.0000 30 hurdat_atl main 99 99 O_____________ hurdat_atl AL101979 20.8000 -96.0000 TD 30 -1 9 4
1979238N18266 1979 75 NA GM NOT_NAMED 1979-08-26 15:00:00 TS 21.2925 -96.0000 main 137 134 P_____________ AL101979 21.2925 -96.0000 TD 30 -1 10 1
1979238N18266 1979 75 NA GM NOT_NAMED 1979-08-26 18:00:00 TS 21.8000 -96.0000 30 hurdat_atl main 136 136 O_____________ hurdat_atl AL101979 21.8000 -96.0000 TD 30 -1 10 2
1979238N18266 1979 75 NA GM NOT_NAMED 1979-08-26 21:00:00 TS 22.2725 -96.0000 main 155 155 P_____________ AL101979 22.2725 -96.0000 TD 30 -1 9 0
1979238N18266 1979 75 NA GM NOT_NAMED 1979-08-27 00:00:00 TS 22.7000 -96.0000 30 hurdat_atl main 181 181 O_____________ hurdat_atl AL101979 22.7000 -96.0000 TD 30 -1 8 2
1979238N18266 1979 75 NA GM NOT_NAMED 1979-08-27 03:00:00 TS 23.0575 -95.9926 main 184 183 P_____________ AL101979 23.0575 -95.9926 TD 30 -1 7 0
1979238N18266 1979 75 NA GM NOT_NAMED 1979-08-27 06:00:00 TS 23.4000 -96.0000 30 hurdat_atl main 183 183 O_____________ hurdat_atl AL101979 23.4000 -96.0000 TD 30 -1 7 0
1979238N18266 1979 75 NA GM NOT_NAMED 1979-08-27 09:00:00 TS 23.7999 -96.0127 main 183 165 P_____________ AL101979 23.7999 -96.0127 TD 30 -1 8 354
1979238N18266 1979 75 NA GM NOT_NAMED 1979-08-27 12:00:00 TS 24.2000 -96.1000 30 hurdat_atl main 165 129 O_____________ hurdat_atl AL101979 24.2000 -96.1000 TD 30 -1 9 341
1979238N18266 1979 75 NA GM NOT_NAMED 1979-08-27 15:00:00 TS 24.6251 -96.3195 main 129 87 P_____________ AL101979 24.6251 -96.3195 TD 27 -1 8 327
1979238N18266 1979 75 NA GM NOT_NAMED 1979-08-27 18:00:00 TS 24.9000 -96.6000 25 hurdat_atl main 87 69 O_____________ hurdat_atl AL101979 24.9000 -96.6000 TD 25 -1 5 304
1979238N18266 1979 75 NA GM NOT_NAMED 1979-08-27 21:00:00 TS 24.9044 -96.7822 main 69 52 P_____________ AL101979 24.9044 -96.7822 TD 25 -1 5 246
1979238N18266 1979 75 NA GM NOT_NAMED 1979-08-28 00:00:00 TS 24.7000 -97.1000 25 hurdat_atl main 52 10 O_____________ hurdat_atl AL101979 24.7000 -97.1000 TD 25 -1 11 239
1979238N18266 1979 75 NA NA NOT_NAMED 1979-08-28 03:00:00 TS 24.3511 -97.8014 main 10 0 P_____________ AL101979 24.3511 -97.8014 TD 25 -1 15 241
1979238N18266 1979 75 NA NA NOT_NAMED 1979-08-28 06:00:00 TS 24.0000 -98.5000 25 hurdat_atl main 0 0 O_____________ hurdat_atl AL101979 24.0000 -98.5000 TD 25 -1 11 242
1979238N18266 1979 75 NA NA NOT_NAMED 1979-08-28 09:00:00 TS 23.8367 -98.8615 main 0 0 P_____________ AL101979 23.8367 -98.8615 TD -1 5 246
1979238N18266 1979 75 NA NA NOT_NAMED 1979-08-28 12:00:00 TS 23.8000 -99.0000 hurdat_atl main 0 O_____________ hurdat_atl AL101979 23.8000 -99.0000 TD -1 3 254

About IBTrACS Database

This database is a web-friendly format of International Best Track Archive for Climate Stewardship (IBTrACS), a global best track data archive curated by NOAA dating back to 1842.

Updated: 2021-10-08